createdAt,value
2023-05-11T00:00:39.709Z,99629.69
2023-05-11T00:03:06.698Z,99625.34
2023-05-11T00:05:33.393Z,99629.00
2023-05-11T00:08:00.052Z,99624.91
2023-05-11T00:10:28.280Z,99621.41
2023-05-11T00:12:54.835Z,99618.19
2023-05-11T00:15:21.376Z,99613.84
2023-05-11T00:17:47.954Z,99620.13
2023-05-11T00:23:02.642Z,99611.59
2023-05-11T00:25:29.030Z,99609.91
2023-05-11T00:27:55.404Z,99610.03
2023-05-11T00:30:22.010Z,99611.84
2023-05-11T00:32:51.419Z,99611.16
2023-05-11T00:35:18.052Z,99606.94
2023-05-11T00:37:44.915Z,99605.28
2023-05-11T00:40:11.571Z,99603.56
2023-05-11T00:42:38.071Z,99609.88
2023-05-11T00:45:05.105Z,99606.53
2023-05-11T00:47:31.944Z,99604.00
2023-05-11T00:49:58.668Z,99601.47
2023-05-11T00:52:25.167Z,99603.25
2023-05-11T00:54:51.669Z,99598.06
2023-05-11T00:57:18.279Z,99599.06
2023-05-11T00:59:44.765Z,99603.56
2023-05-11T01:02:11.426Z,99595.72
2023-05-11T01:04:38.832Z,99599.34
2023-05-11T01:07:20.728Z,99604.94
2023-05-11T01:09:50.078Z,99605.50
2023-05-11T01:12:24.572Z,99600.44
2023-05-11T01:14:57.951Z,99606.63
2023-05-11T01:17:34.378Z,99601.28
2023-05-11T01:20:06.279Z,99605.75
2023-05-11T01:23:00.006Z,99602.53
2023-05-11T01:25:44.934Z,99606.06
2023-05-11T01:28:35.723Z,99610.50
2023-05-11T01:31:10.933Z,99607.84
2023-05-11T01:33:44.438Z,99602.53
2023-05-11T01:36:13.234Z,99602.66
2023-05-11T01:38:44.189Z,99611.63
2023-05-11T01:41:17.611Z,99606.56
2023-05-11T01:43:54.278Z,99613.84
2023-05-11T01:46:25.101Z,99610.09
2023-05-11T01:48:54.761Z,99608.41
2023-05-11T01:51:22.505Z,99606.56
2023-05-11T01:53:50.100Z,99599.56
2023-05-11T01:56:18.281Z,99606.69
2023-05-11T01:58:46.323Z,99614.69
2023-05-11T02:01:15.316Z,99606.84
2023-05-11T02:03:44.167Z,99614.13
2023-05-11T02:06:13.587Z,99615.91
2023-05-11T02:08:41.325Z,99609.78
2023-05-11T02:11:10.420Z,99608.22
2023-05-11T02:13:41.891Z,99613.56
2023-05-11T02:16:10.147Z,99610.88
2023-05-11T02:18:40.853Z,99607.38
2023-05-11T02:21:09.875Z,99611.88
2023-05-11T02:23:37.492Z,99624.31
2023-05-11T02:26:05.944Z,99614.66
2023-05-11T02:28:32.434Z,99618.41
2023-05-11T02:31:05.423Z,99623.13
2023-05-11T02:33:34.231Z,99624.97
2023-05-11T02:36:02.693Z,99629.16
2023-05-11T02:38:34.478Z,99621.56
2023-05-11T02:41:07.320Z,99624.47
2023-05-11T02:43:37.236Z,99624.66
2023-05-11T02:46:06.969Z,99631.91
2023-05-11T02:48:39.837Z,99634.81
2023-05-11T02:51:10.103Z,99630.34
2023-05-11T02:53:40.042Z,99626.69
2023-05-11T02:56:07.815Z,99632.88
2023-05-11T02:58:35.173Z,99629.38
2023-05-11T03:01:02.664Z,99633.84
2023-05-11T03:03:29.302Z,99630.47
2023-05-11T03:05:55.892Z,99630.59
2023-05-11T03:08:22.379Z,99630.59
2023-05-11T03:10:48.980Z,99624.47
2023-05-11T03:13:16.686Z,99627.13
2023-05-11T03:15:44.009Z,99635.22
2023-05-11T03:18:13.141Z,99628.22
2023-05-11T03:20:43.399Z,99632.81
2023-05-11T03:23:12.650Z,99630.16
2023-05-11T03:25:42.966Z,99627.63
2023-05-11T03:28:11.043Z,99631.13
2023-05-11T03:30:38.649Z,99632.13
2023-05-11T03:33:05.500Z,99636.69
2023-05-11T03:35:34.893Z,99627.19
2023-05-11T03:38:02.171Z,99633.47
2023-05-11T03:40:33.422Z,99632.75
2023-05-11T03:43:03.188Z,99632.06
2023-05-11T03:45:31.696Z,99630.38
2023-05-11T03:48:00.459Z,99623.34
2023-05-11T03:50:28.042Z,99630.38
2023-05-11T03:52:56.039Z,99620.69
2023-05-11T03:55:23.021Z,99623.22
2023-05-11T03:57:49.886Z,99624.06
2023-05-11T04:00:16.956Z,99625.63
2023-05-11T04:02:43.886Z,99623.66
2023-05-11T04:05:11.682Z,99619.94
2023-05-11T04:07:39.109Z,99623.97
2023-05-11T04:10:06.407Z,99623.84
2023-05-11T04:12:32.860Z,99623.59
2023-05-11T04:14:59.342Z,99627.81
2023-05-11T04:17:25.784Z,99627.69
2023-05-11T04:19:52.369Z,99628.38
2023-05-11T04:22:18.812Z,99622.94
2023-05-11T04:24:45.461Z,99628.13
2023-05-11T04:27:11.903Z,99627.00
2023-05-11T04:29:38.295Z,99628.56
2023-05-11T04:32:04.975Z,99635.59
2023-05-11T04:34:31.451Z,99631.94
2023-05-11T04:36:58.060Z,99636.16
2023-05-11T04:39:24.497Z,99633.50
2023-05-11T04:41:50.918Z,99636.84
2023-05-11T04:44:17.437Z,99634.19
2023-05-11T04:46:44.019Z,99637.75
2023-05-11T04:49:10.516Z,99647.41
2023-05-11T04:51:36.973Z,99639.41
2023-05-11T04:54:03.534Z,99637.47
2023-05-11T04:56:30.064Z,99637.47
2023-05-11T04:58:56.477Z,99641.81
2023-05-11T05:01:22.990Z,99644.47
2023-05-11T05:03:49.894Z,99639.16
2023-05-11T05:06:16.504Z,99644.47
2023-05-11T05:08:43.031Z,99645.19
2023-05-11T05:11:10.914Z,99645.19
2023-05-11T05:13:37.532Z,99649.66
2023-05-11T05:16:04.192Z,99653.16
2023-05-11T05:18:30.865Z,99639.84
2023-05-11T05:20:57.416Z,99649.53
2023-05-11T05:23:23.917Z,99654.84
2023-05-11T05:25:50.444Z,99656.66
2023-05-11T05:28:16.937Z,99655.00
2023-05-11T05:30:43.516Z,99657.78
2023-05-11T05:33:09.923Z,99667.56
2023-05-11T05:35:36.491Z,99676.53
2023-05-11T05:38:03.069Z,99675.69
2023-05-11T05:40:30.038Z,99674.97
2023-05-11T05:42:56.594Z,99679.56
2023-05-11T05:45:23.011Z,99692.13
2023-05-11T05:47:49.680Z,99687.06
2023-05-11T05:50:16.364Z,99690.94
2023-05-11T05:52:43.041Z,99695.69
2023-05-11T05:55:09.667Z,99696.09
2023-05-11T05:57:36.189Z,99689.38
2023-05-11T06:00:03.036Z,99699.50
2023-05-11T06:02:29.548Z,99702.44
2023-05-11T06:04:56.345Z,99710.69
2023-05-11T06:07:22.853Z,99711.78
2023-05-11T06:09:49.398Z,99710.09
2023-05-11T06:12:16.123Z,99712.03
2023-05-11T06:14:42.637Z,99713.13
2023-05-11T06:17:09.154Z,99718.44
2023-05-11T06:19:35.616Z,99709.78
2023-05-11T06:22:03.143Z,99710.72
2023-05-11T06:24:29.924Z,99719.66
2023-05-11T06:26:56.381Z,99710.00
2023-05-11T06:29:22.974Z,99717.13
2023-05-11T06:31:52.688Z,99719.91
2023-05-11T06:34:20.456Z,99712.22
2023-05-11T06:36:48.014Z,99720.44
2023-05-11T06:39:14.767Z,99718.88
2023-05-11T06:41:41.153Z,99713.81
2023-05-11T06:44:08.356Z,99712.25
2023-05-11T06:46:34.816Z,99716.00
2023-05-11T06:49:01.819Z,99712.75
2023-05-11T06:51:28.221Z,99727.00
2023-05-11T06:53:54.649Z,99720.97
2023-05-11T06:56:21.768Z,99724.63
2023-05-11T06:58:48.358Z,99729.06
2023-05-11T07:01:14.822Z,99723.88
2023-05-11T07:03:41.468Z,99723.06
2023-05-11T07:06:08.074Z,99724.00
2023-05-11T07:08:34.486Z,99725.72
2023-05-11T07:11:01.070Z,99729.94
2023-05-11T07:13:27.493Z,99727.16
2023-05-11T07:15:56.640Z,99734.00
2023-05-11T07:18:24.027Z,99728.44
2023-05-11T07:20:50.512Z,99729.75
2023-05-11T07:23:17.123Z,99725.75
2023-05-11T07:25:43.666Z,99727.88
2023-05-11T07:28:10.127Z,99736.34
2023-05-11T07:30:36.620Z,99734.97
2023-05-11T07:33:03.345Z,99741.72
2023-05-11T07:35:29.894Z,99740.50
2023-05-11T07:37:56.267Z,99730.59
2023-05-11T07:40:22.850Z,99737.34
2023-05-11T07:42:49.237Z,99740.56
2023-05-11T07:45:15.724Z,99743.81
2023-05-11T07:47:42.527Z,99739.09
2023-05-11T07:50:09.225Z,99737.13
2023-05-11T07:52:35.704Z,99734.22
2023-05-11T07:55:02.196Z,99734.78
2023-05-11T07:57:28.610Z,99732.88
2023-05-11T07:59:55.016Z,99731.75
2023-05-11T08:02:21.583Z,99723.56
2023-05-11T08:04:48.147Z,99729.44
2023-05-11T08:07:14.603Z,99733.66
2023-05-11T08:09:41.078Z,99736.19
2023-05-11T08:12:07.775Z,99734.22
2023-05-11T08:14:34.262Z,99728.66
2023-05-11T08:17:00.871Z,99741.59
2023-05-11T08:19:27.355Z,99732.38
2023-05-11T08:21:53.737Z,99732.06
2023-05-11T08:24:20.222Z,99730.84
2023-05-11T08:26:47.122Z,99728.78
2023-05-11T08:29:13.660Z,99737.47
2023-05-11T08:31:40.372Z,99731.03
2023-05-11T08:34:18.626Z,99733.56
2023-05-11T08:36:46.654Z,99731.34
2023-05-11T08:39:13.145Z,99735.41
2023-05-11T08:41:39.530Z,99736.69
2023-05-11T08:44:06.329Z,99735.47
2023-05-11T08:46:36.093Z,99735.03
2023-05-11T08:49:03.023Z,99734.53
2023-05-11T08:51:29.541Z,99743.78
2023-05-11T08:53:57.670Z,99743.66
2023-05-11T08:56:26.494Z,99750.53
2023-05-11T08:58:56.175Z,99747.56
2023-05-11T09:01:23.549Z,99750.97
2023-05-11T09:03:50.833Z,99751.66
2023-05-11T09:06:18.542Z,99750.53
2023-05-11T09:08:45.981Z,99744.09
2023-05-11T09:11:12.751Z,99750.16
2023-05-11T09:13:39.449Z,99757.03
2023-05-11T09:16:13.845Z,99755.91
2023-05-11T09:18:51.522Z,99757.56
2023-05-11T09:21:18.815Z,99759.41
2023-05-11T09:23:45.762Z,99755.91
2023-05-11T09:26:29.734Z,99751.00
2023-05-11T09:29:03.861Z,99755.06
2023-05-11T09:31:40.917Z,99753.06
2023-05-11T09:34:22.077Z,99748.03
2023-05-11T09:36:50.898Z,99752.25
2023-05-11T09:39:35.208Z,99746.06
2023-05-11T09:42:13.835Z,99745.50
2023-05-11T09:44:41.690Z,99751.41
2023-05-11T09:47:16.635Z,99752.38
2023-05-11T09:49:44.448Z,99751.13
2023-05-11T09:52:18.820Z,99751.94
2023-05-11T09:54:51.363Z,99752.53
2023-05-11T09:57:31.248Z,99755.06
2023-05-11T09:59:59.389Z,99758.44
2023-05-11T10:02:30.986Z,99754.81
2023-05-11T10:04:59.551Z,99752.03
2023-05-11T10:07:34.542Z,99755.66
2023-05-11T10:10:02.624Z,99750.78
2023-05-11T10:12:33.361Z,99750.50
2023-05-11T10:15:07.208Z,99752.03
2023-05-11T10:17:35.172Z,99753.31
2023-05-11T10:20:04.001Z,99755.56
2023-05-11T10:22:31.265Z,99744.63
2023-05-11T10:24:58.841Z,99752.91
2023-05-11T10:27:26.271Z,99747.19
2023-05-11T10:29:52.823Z,99753.06
2023-05-11T10:32:20.332Z,99735.25
2023-05-11T10:34:48.448Z,99738.75
2023-05-11T10:37:16.143Z,99745.63
2023-05-11T10:39:44.395Z,99737.34
2023-05-11T10:42:16.805Z,99739.75
2023-05-11T10:45:05.168Z,99738.34
2023-05-11T10:48:15.175Z,99743.38
2023-05-11T10:51:15.582Z,99742.84
2023-05-11T10:54:03.944Z,99746.59
2023-05-11T10:57:07.488Z,99750.97
2023-05-11T11:00:31.065Z,99750.53
2023-05-11T11:02:58.922Z,99750.66
2023-05-11T11:05:36.313Z,99747.44
2023-05-11T11:08:07.219Z,99751.66
2023-05-11T11:10:34.831Z,99756.41
2023-05-11T11:13:11.665Z,99751.66
2023-05-11T11:15:53.415Z,99751.94
2023-05-11T11:18:23.768Z,99752.38
2023-05-11T11:20:52.793Z,99754.72
2023-05-11T11:23:52.084Z,99758.25
2023-05-11T11:26:50.440Z,99755.72
2023-05-11T11:29:17.192Z,99757.13
2023-05-11T11:31:43.698Z,99757.25
2023-05-11T11:34:25.173Z,99755.16
2023-05-11T11:37:03.876Z,99748.94
2023-05-11T11:39:42.642Z,99752.84
2023-05-11T11:42:09.854Z,99756.47
2023-05-11T11:44:39.873Z,99749.31
2023-05-11T11:47:17.241Z,99752.53
2023-05-11T11:49:46.461Z,99760.72
2023-05-11T11:52:14.598Z,99762.69
2023-05-11T11:54:43.656Z,99752.16
2023-05-11T11:57:34.766Z,99762.97
2023-05-11T12:00:10.764Z,99756.94
2023-05-11T12:02:42.377Z,99763.34
2023-05-11T12:05:09.130Z,99760.09
2023-05-11T12:07:40.244Z,99759.78
2023-05-11T12:10:07.149Z,99758.38
2023-05-11T12:12:35.209Z,99754.56
2023-05-11T12:15:03.526Z,99754.41
2023-05-11T12:17:30.120Z,99750.06
2023-05-11T12:20:12.838Z,99752.50
2023-05-11T12:22:39.462Z,99756.56
2023-05-11T12:25:06.924Z,99758.38
2023-05-11T12:27:34.261Z,99755.69
2023-05-11T12:30:01.181Z,99752.22
2023-05-11T12:32:31.709Z,99752.03
2023-05-11T12:35:04.101Z,99755.94
2023-05-11T12:37:31.592Z,99757.06
2023-05-11T12:39:59.511Z,99752.50
2023-05-11T12:42:26.697Z,99747.00
2023-05-11T12:44:54.479Z,99746.47
2023-05-11T12:47:21.102Z,99751.31
2023-05-11T12:49:47.719Z,99749.78
2023-05-11T12:52:14.330Z,99745.75
2023-05-11T12:54:48.009Z,99732.66
2023-05-11T12:57:27.833Z,99740.31
2023-05-11T13:00:08.047Z,99740.59
2023-05-11T13:02:34.982Z,99743.03
2023-05-11T13:05:13.848Z,99730.94
2023-05-11T13:07:40.558Z,99730.09
2023-05-11T13:10:07.523Z,99735.25
2023-05-11T13:12:34.433Z,99727.16
2023-05-11T13:15:07.800Z,99736.09
2023-05-11T13:17:39.053Z,99729.69
2023-05-11T13:20:19.553Z,99733.59
2023-05-11T13:22:47.702Z,99741.06
2023-05-11T13:25:16.362Z,99738.31
2023-05-11T13:27:43.301Z,99732.94
2023-05-11T13:30:11.265Z,99728.47
2023-05-11T13:32:39.069Z,99727.41
2023-05-11T13:35:07.003Z,99727.31
2023-05-11T13:37:33.432Z,99736.09
2023-05-11T13:39:59.941Z,99731.34
2023-05-11T13:42:26.725Z,99732.63
2023-05-11T13:44:53.266Z,99731.22
2023-05-11T13:47:19.754Z,99730.69
2023-05-11T13:49:46.243Z,99729.44
2023-05-11T13:52:12.728Z,99730.06
2023-05-11T13:54:39.255Z,99728.81
2023-05-11T13:57:06.544Z,99715.06
2023-05-11T13:59:33.066Z,99718.88
2023-05-11T14:01:59.653Z,99727.19
2023-05-11T14:04:26.270Z,99724.66
2023-05-11T14:06:53.456Z,99727.47
2023-05-11T14:09:20.478Z,99726.78
2023-05-11T14:11:47.029Z,99719.06
2023-05-11T14:14:14.044Z,99719.50
2023-05-11T14:16:40.825Z,99722.63
2023-05-11T14:19:08.527Z,99721.09
2023-05-11T14:21:35.513Z,99716.88
2023-05-11T14:24:11.361Z,99719.69
2023-05-11T14:26:39.020Z,99713.50
2023-05-11T14:29:05.457Z,99711.84
2023-05-11T14:31:32.799Z,99716.31
2023-05-11T14:33:59.700Z,99721.78
2023-05-11T14:36:26.253Z,99713.09
2023-05-11T14:38:52.853Z,99717.91
2023-05-11T14:41:19.753Z,99724.38
2023-05-11T14:43:46.429Z,99723.66
2023-05-11T14:46:13.400Z,99716.78
2023-05-11T14:48:40.006Z,99718.75
2023-05-11T14:51:06.622Z,99724.25
2023-05-11T14:53:33.173Z,99715.53
2023-05-11T14:56:00.654Z,99714.84
2023-05-11T14:58:27.231Z,99715.00
2023-05-11T15:00:53.738Z,99724.81
2023-05-11T15:03:20.344Z,99726.81
2023-05-11T15:05:47.059Z,99723.41
2023-05-11T15:08:28.402Z,99725.41
2023-05-11T15:10:56.730Z,99721.88
2023-05-11T15:13:24.047Z,99723.72
2023-05-11T15:15:51.449Z,99723.72
2023-05-11T15:18:18.506Z,99728.91
2023-05-11T15:20:45.983Z,99729.63
2023-05-11T15:23:16.760Z,99724.13
2023-05-11T15:25:44.533Z,99727.63
2023-05-11T15:28:14.152Z,99727.50
2023-05-11T15:30:42.053Z,99728.34
2023-05-11T15:33:10.101Z,99739.84
2023-05-11T15:35:37.287Z,99737.16
2023-05-11T15:38:04.370Z,99736.34
2023-05-11T15:40:30.926Z,99735.50
2023-05-11T15:42:58.785Z,99734.81
2023-05-11T15:45:26.181Z,99731.44
2023-05-11T15:47:53.961Z,99729.63
2023-05-11T15:50:20.951Z,99733.56
2023-05-11T15:52:47.949Z,99729.22
2023-05-11T15:55:14.461Z,99729.31
2023-05-11T15:57:40.984Z,99730.13
2023-05-11T16:00:10.587Z,99733.69
2023-05-11T16:02:37.292Z,99731.88
2023-05-11T16:05:04.098Z,99736.34
2023-05-11T16:07:30.659Z,99726.53
2023-05-11T16:09:57.164Z,99731.97
2023-05-11T16:12:23.621Z,99731.97
2023-05-11T16:14:50.253Z,99730.13
2023-05-11T16:17:16.753Z,99731.13
2023-05-11T16:19:43.685Z,99729.31
2023-05-11T16:22:10.246Z,99734.66
2023-05-11T16:24:36.853Z,99725.94
2023-05-11T16:27:03.962Z,99725.94
2023-05-11T16:29:30.546Z,99727.78
2023-05-11T16:31:57.183Z,99725.13
2023-05-11T16:34:23.877Z,99718.06
2023-05-11T16:36:50.471Z,99727.06
2023-05-11T16:39:16.979Z,99727.19
2023-05-11T16:41:43.530Z,99732.72
2023-05-11T16:44:10.179Z,99730.19
2023-05-11T16:46:36.826Z,99738.31
2023-05-11T16:49:03.464Z,99731.13
2023-05-11T16:51:30.065Z,99727.78
2023-05-11T16:53:57.266Z,99733.13
2023-05-11T16:56:23.958Z,99721.75
2023-05-11T16:58:50.602Z,99728.19
2023-05-11T17:01:17.305Z,99728.50
2023-05-11T17:03:44.096Z,99728.78
2023-05-11T17:06:13.686Z,99729.91
2023-05-11T17:08:40.660Z,99732.16
2023-05-11T17:11:07.533Z,99727.09
2023-05-11T17:13:34.283Z,99730.06
2023-05-11T17:16:00.996Z,99725.97
2023-05-11T17:18:27.689Z,99724.56
2023-05-11T17:20:56.072Z,99731.16
2023-05-11T17:23:25.152Z,99739.47
2023-05-11T17:25:52.141Z,99730.06
2023-05-11T17:28:18.821Z,99723.47
2023-05-11T17:30:48.469Z,99734.53
2023-05-11T17:33:16.026Z,99732.97
2023-05-11T17:35:43.032Z,99736.78
2023-05-11T17:38:09.593Z,99733.56
2023-05-11T17:40:36.124Z,99728.50
2023-05-11T17:43:02.760Z,99735.78
2023-05-11T17:45:29.364Z,99729.75
2023-05-11T17:47:56.105Z,99734.38
2023-05-11T17:50:23.461Z,99735.50
2023-05-11T17:52:51.232Z,99731.44
2023-05-11T17:55:18.520Z,99730.72
2023-05-11T17:57:45.311Z,99736.28
2023-05-11T18:00:12.604Z,99737.38
2023-05-11T18:02:39.289Z,99732.34
2023-05-11T18:05:06.986Z,99731.78
2023-05-11T18:07:33.824Z,99727.56
2023-05-11T18:10:00.435Z,99723.34
2023-05-11T18:12:27.083Z,99729.78
2023-05-11T18:14:53.666Z,99737.06
2023-05-11T18:17:20.282Z,99740.00
2023-05-11T18:19:46.820Z,99735.94
2023-05-11T18:22:13.416Z,99737.06
2023-05-11T18:24:39.849Z,99747.28
2023-05-11T18:27:06.353Z,99752.13
2023-05-11T18:29:33.011Z,99751.44
2023-05-11T18:31:59.745Z,99752.69
2023-05-11T18:34:26.404Z,99754.59
2023-05-11T18:36:52.975Z,99752.09
2023-05-11T18:39:19.715Z,99752.22
2023-05-11T18:41:46.241Z,99760.22
2023-05-11T18:44:15.152Z,99753.19
2023-05-11T18:46:42.003Z,99752.50
2023-05-11T18:49:08.982Z,99759.63
2023-05-11T18:51:35.486Z,99758.06
2023-05-11T18:54:02.259Z,99768.03
2023-05-11T18:56:29.805Z,99766.47
2023-05-11T18:58:56.344Z,99764.91
2023-05-11T19:01:26.087Z,99771.47
2023-05-11T19:03:56.899Z,99766.53
2023-05-11T19:06:23.508Z,99772.13
2023-05-11T19:08:50.975Z,99768.75
2023-05-11T19:11:17.750Z,99773.50
2023-05-11T19:13:44.356Z,99763.94
2023-05-11T19:16:10.854Z,99767.59
2023-05-11T19:18:39.944Z,99776.66
2023-05-11T19:21:06.900Z,99777.78
2023-05-11T19:23:33.688Z,99780.44
2023-05-11T19:26:00.563Z,99778.88
2023-05-11T19:28:27.177Z,99787.97
2023-05-11T19:31:04.760Z,99785.78
2023-05-11T19:33:31.755Z,99785.69
2023-05-11T19:35:58.431Z,99779.75
2023-05-11T19:38:25.003Z,99785.19
2023-05-11T19:40:52.243Z,99786.28
2023-05-11T19:43:19.203Z,99790.75
2023-05-11T19:45:45.988Z,99794.41
2023-05-11T19:48:13.702Z,99793.56
2023-05-11T19:50:41.109Z,99782.22
2023-05-11T19:53:07.865Z,99787.66
2023-05-11T19:55:34.477Z,99789.59
2023-05-11T19:58:01.257Z,99786.09
2023-05-11T20:00:27.848Z,99788.75
2023-05-11T20:02:55.226Z,99789.72
2023-05-11T20:05:21.905Z,99779.91
2023-05-11T20:07:48.449Z,99786.22
2023-05-11T20:10:14.919Z,99781.75
2023-05-11T20:12:41.474Z,99785.22
2023-05-11T20:15:08.692Z,99788.88
2023-05-11T20:17:36.162Z,99789.72
2023-05-11T20:20:03.552Z,99787.19
2023-05-11T20:22:31.360Z,99789.97
2023-05-11T20:24:57.908Z,99789.16
2023-05-11T20:27:24.489Z,99790.97
2023-05-11T20:29:51.052Z,99788.41
2023-05-11T20:32:18.368Z,99799.06
2023-05-11T20:34:44.879Z,99800.03
2023-05-11T20:37:11.535Z,99798.34
2023-05-11T20:39:39.120Z,99792.31
2023-05-11T20:42:05.808Z,99792.31
2023-05-11T20:44:32.367Z,99785.31
2023-05-11T20:46:58.875Z,99787.09
2023-05-11T20:49:37.532Z,99791.72
2023-05-11T20:52:05.914Z,99786.41
2023-05-11T20:54:34.738Z,99781.34
2023-05-11T20:57:04.763Z,99786.66
2023-05-11T21:02:02.216Z,99788.59
2023-05-11T21:04:31.090Z,99787.75
2023-05-11T21:06:57.615Z,99789.56
2023-05-11T21:09:25.202Z,99781.56
2023-05-11T21:11:51.591Z,99786.06
2023-05-11T21:14:18.051Z,99773.59
2023-05-11T21:16:44.521Z,99773.59
2023-05-11T21:19:11.941Z,99794.75
2023-05-11T21:21:38.481Z,99786.78
2023-05-11T21:24:06.164Z,99785.09
2023-05-11T21:26:32.843Z,99786.91
2023-05-11T21:28:59.403Z,99786.91
2023-05-11T21:31:26.141Z,99782.56
2023-05-11T21:33:52.701Z,99789.66
2023-05-11T21:36:19.645Z,99783.66
2023-05-11T21:38:46.103Z,99791.75
2023-05-11T21:41:12.715Z,99788.28
2023-05-11T21:43:39.257Z,99792.84
2023-05-11T21:46:06.197Z,99793.81
2023-05-11T21:48:32.738Z,99793.81
2023-05-11T21:50:59.186Z,99793.94
2023-05-11T21:53:25.872Z,99794.06
2023-05-11T21:55:52.314Z,99789.72
2023-05-11T21:58:19.090Z,99793.22
2023-05-11T22:00:46.362Z,99793.38
2023-05-11T22:03:13.325Z,99796.03
2023-05-11T22:05:39.992Z,99794.31
2023-05-11T22:08:14.832Z,99801.47
2023-05-11T22:10:43.146Z,99805.09
2023-05-11T22:13:09.794Z,99798.91
2023-05-11T22:15:36.452Z,99803.38
2023-05-11T22:18:03.568Z,99808.81
2023-05-11T22:20:31.711Z,99808.09
2023-05-11T22:22:58.368Z,99815.09
2023-05-11T22:25:24.823Z,99806.44
2023-05-11T22:27:51.308Z,99803.88
2023-05-11T22:30:18.253Z,99811.97
2023-05-11T22:32:44.992Z,99806.78
2023-05-11T22:35:11.744Z,99806.78
2023-05-11T22:37:38.293Z,99806.78
2023-05-11T22:40:05.340Z,99808.63
2023-05-11T22:42:32.799Z,99808.63
2023-05-11T22:44:59.380Z,99817.41
2023-05-11T22:47:26.127Z,99811.28
2023-05-11T22:49:52.739Z,99816.59
2023-05-11T22:52:19.335Z,99808.63
2023-05-11T22:54:46.360Z,99816.59
2023-05-11T22:57:16.070Z,99824.56
2023-05-11T22:59:42.589Z,99817.41
2023-05-11T23:02:09.032Z,99818.28
2023-05-11T23:04:35.572Z,99814.75
2023-05-11T23:07:02.207Z,99819.09
2023-05-11T23:09:29.004Z,99816.31
2023-05-11T23:11:55.622Z,99814.53
2023-05-11T23:14:22.616Z,99809.22
2023-05-11T23:16:49.469Z,99810.88
2023-05-11T23:19:16.118Z,99809.09
2023-05-11T23:21:42.789Z,99805.56
2023-05-11T23:24:09.326Z,99811.88
2023-05-11T23:26:36.976Z,99810.03
2023-05-11T23:29:03.779Z,99813.66
2023-05-11T23:31:32.189Z,99812.84
2023-05-11T23:33:59.376Z,99807.38
2023-05-11T23:36:26.350Z,99811.00
2023-05-11T23:38:53.641Z,99816.31
2023-05-11T23:41:20.221Z,99818.84
2023-05-11T23:43:46.781Z,99806.44
2023-05-11T23:46:13.347Z,99806.44
2023-05-11T23:48:40.438Z,99810.88
2023-05-11T23:51:07.074Z,99810.75
2023-05-11T23:53:33.818Z,99809.91
2023-05-11T23:56:00.354Z,99819.59
2023-05-11T23:58:26.873Z,99814.28
